JBU2453 KPBI-MMUN
Flight info
| Callsign | JBU2453 |
|---|---|
| Flight time | 1h 34m |
| Altitude | 36000 |
| Route | WELLY4 WELLY DCT SWAGS DCT LULLS DCT CANOA UB879 LETIS B879 CUN |
| Aircraft | A320/M-SDE3FGHIRWY/LB1 |
Departure
| Time | 2026-04-22 01:46 |
|---|---|
| Airport | Palm Beach International Airport (KPBI) |
Arrival
| Time | 2026-04-22 03:20 |
|---|---|
| Airport | Cancún International Airport (MMUN) |
| Time | Latitude | Longitude | Altitude | Speed | Heading |
|---|---|---|---|---|---|
| 2026-04-22 01:17 | 26.68508 | -80.08976 | 27 ft | 0 kts | 26° |
| 2026-04-22 01:26 | 26.68507 | -80.08977 | 26 ft | 2 kts | 26° |
| 2026-04-22 01:27 | 26.68491 | -80.08986 | 32 ft | 2 kts | 13° |
| 2026-04-22 01:27 | 26.68474 | -80.08985 | 30 ft | 3 kts | 350° |
| 2026-04-22 01:27 | 26.68457 | -80.08979 | 30 ft | 2 kts | 296° |
| 2026-04-22 01:27 | 26.68454 | -80.08973 | 30 ft | 0 kts | 268° |
| 2026-04-22 01:32 | 26.68454 | -80.08976 | 29 ft | 2 kts | 268° |
| 2026-04-22 01:33 | 26.68453 | -80.09013 | 26 ft | 6 kts | 268° |
| 2026-04-22 01:33 | 26.68451 | -80.09073 | 25 ft | 9 kts | 266° |
| 2026-04-22 01:33 | 26.68420 | -80.09139 | 25 ft | 10 kts | 232° |
| 2026-04-22 01:33 | 26.68374 | -80.09204 | 26 ft | 11 kts | 240° |
| 2026-04-22 01:34 | 26.68367 | -80.09297 | 26 ft | 13 kts | 270° |
| 2026-04-22 01:34 | 26.68369 | -80.09406 | 26 ft | 14 kts | 272° |
| 2026-04-22 01:34 | 26.68373 | -80.09515 | 30 ft | 13 kts | 273° |
| 2026-04-22 01:34 | 26.68378 | -80.09616 | 33 ft | 13 kts | 274° |
| 2026-04-22 01:35 | 26.68384 | -80.09719 | 33 ft | 14 kts | 274° |
| 2026-04-22 01:35 | 26.68388 | -80.09835 | 33 ft | 16 kts | 272° |
| 2026-04-22 01:35 | 26.68393 | -80.09967 | 31 ft | 18 kts | 272° |
| 2026-04-22 01:35 | 26.68400 | -80.10109 | 33 ft | 19 kts | 273° |
| 2026-04-22 01:36 | 26.68408 | -80.10270 | 30 ft | 22 kts | 273° |
| 2026-04-22 01:36 | 26.68410 | -80.10426 | 26 ft | 13 kts | 252° |
| 2026-04-22 01:36 | 26.68405 | -80.10436 | 30 ft | 0 kts | 236° |
| 2026-04-22 01:37 | 26.68404 | -80.10437 | 30 ft | 1 kts | 236° |
| 2026-04-22 01:44 | 26.68401 | -80.10442 | 27 ft | 3 kts | 232° |
| 2026-04-22 01:45 | 26.68360 | -80.10451 | 29 ft | 9 kts | 182° |
| 2026-04-22 01:45 | 26.68311 | -80.10408 | 28 ft | 12 kts | 108° |
| 2026-04-22 01:45 | 26.68289 | -80.10074 | 34 ft | 76 kts | 94° |
| 2026-04-22 01:45 | 26.68257 | -80.09260 | 26 ft | 130 kts | 92° |
| 2026-04-22 01:46 | 26.68209 | -80.08096 | 136 ft | 163 kts | 92° |
| 2026-04-22 01:46 | 26.68162 | -80.06792 | 681 ft | 172 kts | 91° |
| 2026-04-22 01:46 | 26.68209 | -80.05395 | 1084 ft | 193 kts | 77° |
| 2026-04-22 01:46 | 26.68758 | -80.03944 | 1664 ft | 210 kts | 62° |
| 2026-04-22 01:47 | 26.69542 | -80.02538 | 2453 ft | 216 kts | 49° |
| 2026-04-22 01:47 | 26.70817 | -80.01606 | 3256 ft | 229 kts | 21° |
| 2026-04-22 01:47 | 26.72440 | -80.01588 | 4084 ft | 244 kts | 347° |
| 2026-04-22 01:47 | 26.74042 | -80.02305 | 4955 ft | 253 kts | 337° |
| 2026-04-22 01:48 | 26.75416 | -80.03597 | 5820 ft | 267 kts | 309° |
| 2026-04-22 01:48 | 26.76087 | -80.05567 | 6690 ft | 279 kts | 278° |
| 2026-04-22 01:48 | 26.75845 | -80.07738 | 7512 ft | 286 kts | 255° |
| 2026-04-22 01:48 | 26.75303 | -80.09895 | 8272 ft | 292 kts | 255° |
| 2026-04-22 01:49 | 26.74741 | -80.12084 | 9117 ft | 294 kts | 255° |
| 2026-04-22 01:49 | 26.74172 | -80.14290 | 10010 ft | 296 kts | 255° |
| 2026-04-22 01:49 | 26.73591 | -80.16557 | 10446 ft | 314 kts | 255° |
| 2026-04-22 01:49 | 26.72973 | -80.18996 | 10605 ft | 337 kts | 255° |
| 2026-04-22 01:50 | 26.72329 | -80.21551 | 10916 ft | 352 kts | 255° |
| 2026-04-22 01:50 | 26.71650 | -80.24246 | 11536 ft | 357 kts | 255° |
| 2026-04-22 01:50 | 26.70972 | -80.26934 | 12215 ft | 361 kts | 256° |
| 2026-04-22 01:50 | 26.70298 | -80.29612 | 12905 ft | 364 kts | 256° |
| 2026-04-22 01:51 | 26.69608 | -80.32351 | 13561 ft | 367 kts | 256° |
| 2026-04-22 01:51 | 26.68912 | -80.35109 | 14197 ft | 370 kts | 256° |
| 2026-04-22 01:51 | 26.68206 | -80.37897 | 14806 ft | 372 kts | 255° |
| 2026-04-22 01:51 | 26.67500 | -80.40690 | 15406 ft | 374 kts | 255° |
| 2026-04-22 01:52 | 26.66793 | -80.43499 | 15974 ft | 376 kts | 256° |
| 2026-04-22 01:52 | 26.66081 | -80.46326 | 16583 ft | 378 kts | 256° |
| 2026-04-22 01:52 | 26.65363 | -80.49163 | 17180 ft | 381 kts | 256° |
| 2026-04-22 01:52 | 26.64638 | -80.52022 | 17782 ft | 383 kts | 255° |
| 2026-04-22 01:53 | 26.63906 | -80.54901 | 18393 ft | 386 kts | 255° |
| 2026-04-22 01:53 | 26.63170 | -80.57791 | 18971 ft | 388 kts | 256° |
| 2026-04-22 01:53 | 26.62597 | -80.60698 | 19527 ft | 388 kts | 264° |
| 2026-04-22 01:53 | 26.62370 | -80.63708 | 20127 ft | 389 kts | 267° |
| 2026-04-22 01:54 | 26.62166 | -80.66730 | 20727 ft | 391 kts | 267° |
| 2026-04-22 01:54 | 26.61959 | -80.69764 | 21296 ft | 392 kts | 267° |
| 2026-04-22 01:54 | 26.61684 | -80.72802 | 21829 ft | 395 kts | 261° |
| 2026-04-22 01:54 | 26.60914 | -80.75756 | 22336 ft | 399 kts | 249° |
| 2026-04-22 01:55 | 26.59567 | -80.78496 | 22832 ft | 406 kts | 237° |
| 2026-04-22 01:55 | 26.57692 | -80.80875 | 23311 ft | 413 kts | 225° |
| 2026-04-22 01:55 | 26.55370 | -80.82805 | 23762 ft | 419 kts | 217° |
| 2026-04-22 01:55 | 26.52917 | -80.84582 | 24160 ft | 421 kts | 217° |
| 2026-04-22 01:56 | 26.50448 | -80.86367 | 24535 ft | 423 kts | 217° |
| 2026-04-22 01:56 | 26.47968 | -80.88158 | 24886 ft | 426 kts | 217° |
| 2026-04-22 01:56 | 26.45474 | -80.89959 | 25234 ft | 428 kts | 217° |
| 2026-04-22 01:56 | 26.42964 | -80.91770 | 25567 ft | 430 kts | 217° |
| 2026-04-22 01:57 | 26.40476 | -80.93565 | 25894 ft | 433 kts | 217° |
| 2026-04-22 01:57 | 26.37941 | -80.95395 | 26229 ft | 435 kts | 217° |
| 2026-04-22 01:57 | 26.35396 | -80.97234 | 26560 ft | 437 kts | 217° |
| 2026-04-22 01:57 | 26.32833 | -80.99086 | 26891 ft | 440 kts | 217° |
| 2026-04-22 01:58 | 26.30256 | -81.00948 | 27221 ft | 442 kts | 217° |
| 2026-04-22 01:58 | 26.28541 | -81.02186 | 27436 ft | 444 kts | 217° |
| 2026-04-22 01:58 | 26.25940 | -81.04061 | 27739 ft | 447 kts | 217° |
| 2026-04-22 01:58 | 26.23323 | -81.05947 | 28058 ft | 449 kts | 217° |
| 2026-04-22 01:59 | 26.20690 | -81.07839 | 28370 ft | 451 kts | 217° |
| 2026-04-22 01:59 | 26.18029 | -81.09720 | 28698 ft | 455 kts | 214° |
| 2026-04-22 01:59 | 26.15173 | -81.11306 | 29086 ft | 458 kts | 209° |
| 2026-04-22 01:59 | 26.12274 | -81.12797 | 29511 ft | 458 kts | 209° |
| 2026-04-22 02:00 | 26.09380 | -81.14280 | 29945 ft | 458 kts | 209° |
| 2026-04-22 02:00 | 26.06521 | -81.15745 | 30381 ft | 457 kts | 209° |
| 2026-04-22 02:00 | 26.03632 | -81.17225 | 30764 ft | 456 kts | 210° |
| 2026-04-22 02:00 | 26.00749 | -81.18707 | 31183 ft | 454 kts | 210° |
| 2026-04-22 02:01 | 25.97882 | -81.20181 | 31596 ft | 452 kts | 210° |
| 2026-04-22 02:01 | 25.95034 | -81.21644 | 32058 ft | 449 kts | 210° |
| 2026-04-22 02:01 | 25.92202 | -81.23098 | 32512 ft | 447 kts | 211° |
| 2026-04-22 02:01 | 25.89391 | -81.24537 | 32976 ft | 444 kts | 211° |
| 2026-04-22 02:02 | 25.86593 | -81.25974 | 33438 ft | 442 kts | 211° |
| 2026-04-22 02:02 | 25.83808 | -81.27402 | 33904 ft | 439 kts | 211° |
| 2026-04-22 02:02 | 25.81030 | -81.28826 | 34186 ft | 439 kts | 211° |
| 2026-04-22 02:02 | 25.78286 | -81.30235 | 34249 ft | 443 kts | 211° |
| 2026-04-22 02:03 | 25.72652 | -81.33128 | 34247 ft | 447 kts | 211° |
| 2026-04-22 02:03 | 25.66960 | -81.36030 | 34245 ft | 449 kts | 212° |
| 2026-04-22 02:04 | 25.58429 | -81.40373 | 34248 ft | 450 kts | 212° |
| 2026-04-22 02:05 | 25.52766 | -81.43255 | 34239 ft | 450 kts | 212° |
| 2026-04-22 02:05 | 25.47063 | -81.46162 | 34243 ft | 450 kts | 212° |
| 2026-04-22 02:06 | 25.41370 | -81.49060 | 34253 ft | 450 kts | 212° |
| 2026-04-22 02:06 | 25.35697 | -81.51939 | 34223 ft | 450 kts | 212° |
| 2026-04-22 02:07 | 25.29997 | -81.54834 | 34239 ft | 451 kts | 212° |
| 2026-04-22 02:07 | 25.24298 | -81.57729 | 34237 ft | 451 kts | 212° |
| 2026-04-22 02:08 | 25.18628 | -81.60602 | 34243 ft | 451 kts | 212° |
| 2026-04-22 02:08 | 25.12920 | -81.63487 | 34242 ft | 451 kts | 212° |
| 2026-04-22 02:09 | 25.07217 | -81.66367 | 34208 ft | 451 kts | 212° |
| 2026-04-22 02:09 | 25.01506 | -81.69246 | 34212 ft | 451 kts | 212° |
| 2026-04-22 02:10 | 24.95799 | -81.72121 | 34224 ft | 451 kts | 212° |
| 2026-04-22 02:10 | 24.90092 | -81.74999 | 34219 ft | 451 kts | 212° |
| 2026-04-22 02:11 | 24.84414 | -81.77865 | 34226 ft | 451 kts | 212° |
| 2026-04-22 02:11 | 24.78701 | -81.80735 | 34225 ft | 451 kts | 212° |
| 2026-04-22 02:12 | 24.72982 | -81.83604 | 34229 ft | 451 kts | 212° |
| 2026-04-22 02:12 | 24.67276 | -81.86466 | 34235 ft | 450 kts | 212° |
| 2026-04-22 02:13 | 24.61579 | -81.89325 | 34234 ft | 449 kts | 212° |
| 2026-04-22 02:13 | 24.55925 | -81.92158 | 34245 ft | 449 kts | 212° |
| 2026-04-22 02:14 | 24.50531 | -81.95437 | 34241 ft | 435 kts | 225° |
| 2026-04-22 02:14 | 24.46503 | -82.00182 | 34234 ft | 418 kts | 243° |
| 2026-04-22 02:15 | 24.43863 | -82.05789 | 34230 ft | 413 kts | 250° |
| 2026-04-22 02:15 | 24.41376 | -82.11480 | 34221 ft | 413 kts | 250° |
| 2026-04-22 02:16 | 24.38896 | -82.17130 | 34218 ft | 413 kts | 249° |
| 2026-04-22 02:16 | 24.36397 | -82.22810 | 34219 ft | 413 kts | 249° |
| 2026-04-22 02:17 | 24.33892 | -82.28501 | 34219 ft | 413 kts | 249° |
| 2026-04-22 02:17 | 24.31412 | -82.34147 | 34217 ft | 413 kts | 250° |
| 2026-04-22 02:18 | 24.28921 | -82.39821 | 34214 ft | 413 kts | 249° |
| 2026-04-22 02:18 | 24.26421 | -82.45490 | 34214 ft | 413 kts | 249° |
| 2026-04-22 02:19 | 24.23913 | -82.51168 | 34214 ft | 413 kts | 249° |
| 2026-04-22 02:19 | 24.21403 | -82.56847 | 34212 ft | 413 kts | 249° |
| 2026-04-22 02:20 | 24.18903 | -82.62507 | 34192 ft | 413 kts | 249° |
| 2026-04-22 02:20 | 24.16394 | -82.68167 | 34206 ft | 412 kts | 249° |
| 2026-04-22 02:21 | 24.13893 | -82.73806 | 34208 ft | 412 kts | 249° |
| 2026-04-22 02:21 | 24.11403 | -82.79407 | 34198 ft | 411 kts | 249° |
| 2026-04-22 02:22 | 24.08897 | -82.85048 | 34201 ft | 411 kts | 249° |
| 2026-04-22 02:22 | 24.06392 | -82.90672 | 34200 ft | 411 kts | 249° |
| 2026-04-22 02:23 | 24.03881 | -82.96306 | 34199 ft | 411 kts | 249° |
| 2026-04-22 02:23 | 24.01387 | -83.01895 | 34202 ft | 411 kts | 249° |
| 2026-04-22 02:24 | 23.98448 | -83.07305 | 34205 ft | 419 kts | 239° |
| 2026-04-22 02:24 | 23.94960 | -83.12423 | 34197 ft | 419 kts | 239° |
| 2026-04-22 02:25 | 23.91506 | -83.17502 | 34160 ft | 419 kts | 239° |
| 2026-04-22 02:25 | 23.88032 | -83.22618 | 34171 ft | 419 kts | 239° |
| 2026-04-22 02:26 | 23.84552 | -83.27718 | 34173 ft | 418 kts | 239° |
| 2026-04-22 02:26 | 23.81066 | -83.32820 | 34180 ft | 418 kts | 239° |
| 2026-04-22 02:27 | 23.77607 | -83.37884 | 34185 ft | 418 kts | 239° |
| 2026-04-22 02:27 | 23.74129 | -83.42978 | 34186 ft | 418 kts | 239° |
| 2026-04-22 02:28 | 23.70645 | -83.48076 | 34177 ft | 418 kts | 239° |
| 2026-04-22 02:28 | 23.67163 | -83.53159 | 34179 ft | 418 kts | 239° |
| 2026-04-22 02:29 | 23.63689 | -83.58215 | 34177 ft | 418 kts | 239° |
| 2026-04-22 02:29 | 23.60205 | -83.63293 | 34154 ft | 418 kts | 239° |
| 2026-04-22 02:30 | 23.56714 | -83.68384 | 34170 ft | 423 kts | 239° |
| 2026-04-22 02:30 | 23.53161 | -83.73562 | 34166 ft | 428 kts | 238° |
| 2026-04-22 02:31 | 23.49584 | -83.78753 | 34171 ft | 429 kts | 238° |
| 2026-04-22 02:31 | 23.46001 | -83.83945 | 34167 ft | 429 kts | 238° |
| 2026-04-22 02:32 | 23.42416 | -83.89135 | 34158 ft | 429 kts | 238° |
| 2026-04-22 02:32 | 23.38831 | -83.94325 | 34156 ft | 429 kts | 238° |
| 2026-04-22 02:33 | 23.35247 | -83.99508 | 34151 ft | 429 kts | 238° |
| 2026-04-22 02:33 | 23.31682 | -84.04666 | 34157 ft | 428 kts | 238° |
| 2026-04-22 02:34 | 23.28095 | -84.09851 | 34141 ft | 429 kts | 238° |
| 2026-04-22 02:34 | 23.24495 | -84.15037 | 34136 ft | 429 kts | 238° |
| 2026-04-22 02:35 | 23.20926 | -84.20182 | 34148 ft | 429 kts | 238° |
| 2026-04-22 02:35 | 23.17320 | -84.25369 | 34147 ft | 429 kts | 238° |
| 2026-04-22 02:36 | 23.13718 | -84.30546 | 34137 ft | 429 kts | 238° |
| 2026-04-22 02:36 | 23.10112 | -84.35724 | 34139 ft | 430 kts | 238° |
| 2026-04-22 02:37 | 23.06524 | -84.40876 | 34140 ft | 430 kts | 238° |
| 2026-04-22 02:37 | 23.02903 | -84.46056 | 34144 ft | 430 kts | 238° |
| 2026-04-22 02:38 | 22.99288 | -84.51234 | 34130 ft | 430 kts | 238° |
| 2026-04-22 02:38 | 22.95694 | -84.56390 | 34134 ft | 433 kts | 237° |
| 2026-04-22 02:39 | 22.92063 | -84.61578 | 34141 ft | 431 kts | 238° |
| 2026-04-22 02:39 | 22.88435 | -84.66750 | 34142 ft | 430 kts | 238° |
| 2026-04-22 02:40 | 22.84834 | -84.71879 | 34139 ft | 430 kts | 238° |
| 2026-04-22 02:40 | 22.81207 | -84.77037 | 34137 ft | 430 kts | 238° |
| 2026-04-22 02:41 | 22.77587 | -84.82204 | 34134 ft | 430 kts | 238° |
| 2026-04-22 02:41 | 22.73981 | -84.87336 | 34140 ft | 430 kts | 238° |
| 2026-04-22 02:42 | 22.70349 | -84.92502 | 34143 ft | 430 kts | 238° |
| 2026-04-22 02:42 | 22.66725 | -84.97649 | 34139 ft | 429 kts | 238° |
| 2026-04-22 02:43 | 22.63102 | -85.02782 | 34139 ft | 428 kts | 238° |
| 2026-04-22 02:43 | 22.59506 | -85.07876 | 34147 ft | 428 kts | 238° |
| 2026-04-22 02:44 | 22.55930 | -85.13018 | 34147 ft | 427 kts | 238° |
| 2026-04-22 02:44 | 22.52367 | -85.18163 | 34145 ft | 427 kts | 238° |
| 2026-04-22 02:45 | 22.48787 | -85.23300 | 34142 ft | 427 kts | 238° |
| 2026-04-22 02:45 | 22.45202 | -85.28434 | 34142 ft | 427 kts | 238° |
| 2026-04-22 02:46 | 22.41640 | -85.33534 | 34143 ft | 427 kts | 238° |
| 2026-04-22 02:46 | 22.38055 | -85.38661 | 34130 ft | 428 kts | 238° |
| 2026-04-22 02:47 | 22.34461 | -85.43793 | 34127 ft | 428 kts | 238° |
| 2026-04-22 02:47 | 22.30872 | -85.48936 | 34133 ft | 428 kts | 238° |
| 2026-04-22 02:48 | 22.27292 | -85.54039 | 34139 ft | 428 kts | 238° |
| 2026-04-22 02:48 | 22.23686 | -85.59157 | 34140 ft | 428 kts | 238° |
| 2026-04-22 02:49 | 22.20084 | -85.64290 | 34145 ft | 428 kts | 238° |
| 2026-04-22 02:49 | 22.16502 | -85.69427 | 34145 ft | 428 kts | 238° |
| 2026-04-22 02:50 | 22.12912 | -85.74562 | 34141 ft | 428 kts | 238° |
| 2026-04-22 02:50 | 22.09325 | -85.79656 | 34142 ft | 428 kts | 238° |
| 2026-04-22 02:51 | 22.06311 | -85.83945 | 34120 ft | 428 kts | 237° |
| 2026-04-22 02:51 | 22.02737 | -85.89042 | 34123 ft | 429 kts | 237° |
| 2026-04-22 02:52 | 21.99129 | -85.94173 | 34126 ft | 429 kts | 237° |
| 2026-04-22 02:52 | 21.95298 | -85.99122 | 34129 ft | 436 kts | 227° |
| 2026-04-22 02:53 | 21.90723 | -86.03437 | 34135 ft | 437 kts | 226° |
| 2026-04-22 02:53 | 21.86140 | -86.07743 | 34128 ft | 437 kts | 227° |
| 2026-04-22 02:54 | 21.81597 | -86.12017 | 34127 ft | 436 kts | 227° |
| 2026-04-22 02:54 | 21.79320 | -86.14161 | 33598 ft | 434 kts | 227° |
| 2026-04-22 02:54 | 21.77042 | -86.16307 | 32614 ft | 438 kts | 226° |
| 2026-04-22 02:54 | 21.74736 | -86.18481 | 31567 ft | 444 kts | 226° |
| 2026-04-22 02:55 | 21.72391 | -86.20690 | 30485 ft | 451 kts | 226° |
| 2026-04-22 02:55 | 21.70017 | -86.22928 | 29247 ft | 458 kts | 225° |
| 2026-04-22 02:55 | 21.67607 | -86.25194 | 28327 ft | 461 kts | 225° |
| 2026-04-22 02:55 | 21.65176 | -86.27477 | 27690 ft | 467 kts | 225° |
| 2026-04-22 02:56 | 21.62715 | -86.29782 | 27070 ft | 470 kts | 225° |
| 2026-04-22 02:56 | 21.60280 | -86.32057 | 26471 ft | 468 kts | 225° |
| 2026-04-22 02:56 | 21.57828 | -86.34346 | 25890 ft | 464 kts | 224° |
| 2026-04-22 02:56 | 21.55414 | -86.36597 | 25368 ft | 454 kts | 224° |
| 2026-04-22 02:57 | 21.52944 | -86.38666 | 24863 ft | 448 kts | 216° |
| 2026-04-22 02:57 | 21.50201 | -86.40221 | 24370 ft | 445 kts | 207° |
| 2026-04-22 02:57 | 21.47376 | -86.41515 | 23885 ft | 438 kts | 207° |
| 2026-04-22 02:57 | 21.44592 | -86.42787 | 23448 ft | 430 kts | 206° |
| 2026-04-22 02:58 | 21.41856 | -86.44036 | 23027 ft | 425 kts | 206° |
| 2026-04-22 02:58 | 21.39175 | -86.45263 | 22625 ft | 422 kts | 206° |
| 2026-04-22 02:58 | 21.36483 | -86.46496 | 22218 ft | 419 kts | 206° |
| 2026-04-22 02:58 | 21.33812 | -86.47724 | 21828 ft | 416 kts | 206° |
| 2026-04-22 02:59 | 21.31149 | -86.48947 | 21443 ft | 414 kts | 206° |
| 2026-04-22 02:59 | 21.28508 | -86.50158 | 21083 ft | 412 kts | 206° |
| 2026-04-22 02:59 | 21.25877 | -86.51364 | 20722 ft | 410 kts | 206° |
| 2026-04-22 02:59 | 21.23288 | -86.52550 | 20370 ft | 408 kts | 206° |
| 2026-04-22 03:00 | 21.20674 | -86.53747 | 20016 ft | 406 kts | 206° |
| 2026-04-22 03:00 | 21.18090 | -86.54933 | 19668 ft | 404 kts | 206° |
| 2026-04-22 03:00 | 21.15517 | -86.56114 | 19319 ft | 402 kts | 206° |
| 2026-04-22 03:00 | 21.12948 | -86.57291 | 18973 ft | 400 kts | 206° |
| 2026-04-22 03:01 | 21.10388 | -86.58462 | 18634 ft | 398 kts | 205° |
| 2026-04-22 03:01 | 21.07879 | -86.59606 | 18297 ft | 396 kts | 205° |
| 2026-04-22 03:01 | 21.05354 | -86.60759 | 17914 ft | 393 kts | 205° |
| 2026-04-22 03:01 | 21.02842 | -86.61907 | 17526 ft | 392 kts | 205° |
| 2026-04-22 03:02 | 21.00341 | -86.63050 | 17153 ft | 390 kts | 205° |
| 2026-04-22 03:02 | 20.97852 | -86.64185 | 16778 ft | 388 kts | 205° |
| 2026-04-22 03:02 | 20.95391 | -86.65304 | 16401 ft | 381 kts | 206° |
| 2026-04-22 03:02 | 20.92972 | -86.66401 | 16041 ft | 373 kts | 206° |
| 2026-04-22 03:03 | 20.90618 | -86.67469 | 15677 ft | 359 kts | 205° |
| 2026-04-22 03:03 | 20.88380 | -86.68486 | 15324 ft | 340 kts | 204° |
| 2026-04-22 03:03 | 20.86315 | -86.69582 | 14965 ft | 321 kts | 220° |
| 2026-04-22 03:03 | 20.84975 | -86.71332 | 14626 ft | 302 kts | 250° |
| 2026-04-22 03:04 | 20.84672 | -86.73465 | 14281 ft | 285 kts | 279° |
| 2026-04-22 03:04 | 20.85352 | -86.75385 | 13954 ft | 273 kts | 304° |
| 2026-04-22 03:04 | 20.86411 | -86.77058 | 13580 ft | 270 kts | 304° |
| 2026-04-22 03:04 | 20.87464 | -86.78712 | 13200 ft | 268 kts | 304° |
| 2026-04-22 03:05 | 20.88514 | -86.80367 | 12821 ft | 269 kts | 304° |
| 2026-04-22 03:05 | 20.89546 | -86.82001 | 12427 ft | 268 kts | 304° |
| 2026-04-22 03:05 | 20.90585 | -86.83652 | 12039 ft | 268 kts | 304° |
| 2026-04-22 03:05 | 20.91627 | -86.85314 | 11653 ft | 270 kts | 303° |
| 2026-04-22 03:06 | 20.92679 | -86.86993 | 11270 ft | 273 kts | 303° |
| 2026-04-22 03:06 | 20.93736 | -86.88679 | 10883 ft | 272 kts | 303° |
| 2026-04-22 03:06 | 20.94780 | -86.90345 | 10509 ft | 267 kts | 303° |
| 2026-04-22 03:06 | 20.95805 | -86.91983 | 10139 ft | 263 kts | 302° |
| 2026-04-22 03:07 | 20.96819 | -86.93603 | 9749 ft | 261 kts | 303° |
| 2026-04-22 03:07 | 20.97826 | -86.95213 | 9338 ft | 260 kts | 304° |
| 2026-04-22 03:07 | 20.98830 | -86.96816 | 8942 ft | 258 kts | 304° |
| 2026-04-22 03:07 | 20.99826 | -86.98408 | 8546 ft | 257 kts | 304° |
| 2026-04-22 03:08 | 21.00806 | -86.99976 | 8158 ft | 255 kts | 304° |
| 2026-04-22 03:08 | 21.01788 | -87.01543 | 7774 ft | 253 kts | 305° |
| 2026-04-22 03:08 | 21.02763 | -87.03102 | 7388 ft | 251 kts | 305° |
| 2026-04-22 03:08 | 21.03732 | -87.04652 | 7010 ft | 249 kts | 304° |
| 2026-04-22 03:09 | 21.04690 | -87.06192 | 6621 ft | 248 kts | 305° |
| 2026-04-22 03:09 | 21.05644 | -87.07725 | 6202 ft | 247 kts | 305° |
| 2026-04-22 03:09 | 21.06597 | -87.09254 | 5784 ft | 246 kts | 305° |
| 2026-04-22 03:09 | 21.07544 | -87.10775 | 5363 ft | 243 kts | 305° |
| 2026-04-22 03:10 | 21.08464 | -87.12251 | 4955 ft | 239 kts | 305° |
| 2026-04-22 03:10 | 21.09385 | -87.13725 | 4521 ft | 236 kts | 305° |
| 2026-04-22 03:10 | 21.10289 | -87.15174 | 4111 ft | 233 kts | 305° |
| 2026-04-22 03:10 | 21.11183 | -87.16609 | 3696 ft | 230 kts | 306° |
| 2026-04-22 03:11 | 21.12065 | -87.18029 | 3287 ft | 228 kts | 305° |
| 2026-04-22 03:11 | 21.13043 | -87.19333 | 2861 ft | 222 kts | 324° |
| 2026-04-22 03:11 | 21.14384 | -87.20057 | 2450 ft | 212 kts | 353° |
| 2026-04-22 03:11 | 21.15799 | -87.20062 | 2088 ft | 199 kts | 17° |
| 2026-04-22 03:12 | 21.16970 | -87.19484 | 2000 ft | 173 kts | 39° |
| 2026-04-22 03:12 | 21.18150 | -87.17709 | 2016 ft | 140 kts | 73° |
| 2026-04-22 03:12 | 21.18290 | -87.16670 | 2014 ft | 142 kts | 89° |
| 2026-04-22 03:13 | 21.18121 | -87.15621 | 2009 ft | 145 kts | 105° |
| 2026-04-22 03:13 | 21.17682 | -87.14641 | 2013 ft | 146 kts | 113° |
| 2026-04-22 03:13 | 21.17212 | -87.13669 | 2013 ft | 146 kts | 113° |
| 2026-04-22 03:13 | 21.16746 | -87.12699 | 2012 ft | 146 kts | 113° |
| 2026-04-22 03:14 | 21.16279 | -87.11731 | 2015 ft | 146 kts | 113° |
| 2026-04-22 03:14 | 21.15802 | -87.10741 | 2023 ft | 158 kts | 114° |
| 2026-04-22 03:14 | 21.15286 | -87.09669 | 2017 ft | 164 kts | 114° |
| 2026-04-22 03:14 | 21.14761 | -87.08580 | 2014 ft | 165 kts | 114° |
| 2026-04-22 03:15 | 21.14233 | -87.07487 | 2012 ft | 165 kts | 114° |
| 2026-04-22 03:15 | 21.13711 | -87.06407 | 2013 ft | 165 kts | 115° |
| 2026-04-22 03:15 | 21.13175 | -87.05297 | 2012 ft | 166 kts | 115° |
| 2026-04-22 03:15 | 21.12647 | -87.04201 | 2012 ft | 166 kts | 114° |
| 2026-04-22 03:16 | 21.12124 | -87.03117 | 2012 ft | 165 kts | 115° |
| 2026-04-22 03:16 | 21.11593 | -87.02022 | 2012 ft | 166 kts | 115° |
| 2026-04-22 03:16 | 21.11061 | -87.00925 | 2013 ft | 166 kts | 114° |
| 2026-04-22 03:16 | 21.10529 | -86.99824 | 2013 ft | 166 kts | 114° |
| 2026-04-22 03:17 | 21.10012 | -86.98760 | 2003 ft | 154 kts | 114° |
| 2026-04-22 03:17 | 21.09532 | -86.97771 | 2005 ft | 149 kts | 113° |
| 2026-04-22 03:17 | 21.09320 | -86.96718 | 1938 ft | 144 kts | 92° |
| 2026-04-22 03:17 | 21.09274 | -86.95654 | 1687 ft | 142 kts | 90° |
| 2026-04-22 03:18 | 21.09185 | -86.94602 | 1450 ft | 142 kts | 100° |
| 2026-04-22 03:18 | 21.08896 | -86.93608 | 1242 ft | 141 kts | 110° |
| 2026-04-22 03:18 | 21.08402 | -86.92685 | 993 ft | 144 kts | 121° |
| 2026-04-22 03:18 | 21.07767 | -86.91842 | 792 ft | 144 kts | 124° |
| 2026-04-22 03:19 | 21.07181 | -86.90993 | 659 ft | 140 kts | 112° |
| 2026-04-22 03:19 | 21.06713 | -86.90081 | 412 ft | 144 kts | 118° |
| 2026-04-22 03:19 | 21.06135 | -86.89178 | 260 ft | 150 kts | 122° |
| 2026-04-22 03:19 | 21.05551 | -86.88264 | 126 ft | 148 kts | 120° |
| 2026-04-22 03:20 | 21.05016 | -86.87406 | 25 ft | 123 kts | 122° |
| 2026-04-22 03:20 | 21.04711 | -86.86922 | 21 ft | 41 kts | 123° |
| 2026-04-22 03:20 | 21.04551 | -86.86671 | 21 ft | 42 kts | 123° |
| 2026-04-22 03:20 | 21.04380 | -86.86431 | 20 ft | 38 kts | 150° |
| 2026-04-22 03:21 | 21.04144 | -86.86310 | 18 ft | 34 kts | 151° |
| 2026-04-22 03:21 | 21.03999 | -86.86251 | 18 ft | 23 kts | 210° |
| 2026-04-22 03:21 | 21.03861 | -86.86339 | 18 ft | 23 kts | 214° |
| 2026-04-22 03:21 | 21.03719 | -86.86441 | 18 ft | 26 kts | 214° |
| 2026-04-22 03:22 | 21.03591 | -86.86545 | 18 ft | 21 kts | 234° |
| 2026-04-22 03:22 | 21.03602 | -86.86690 | 18 ft | 18 kts | 283° |
| 2026-04-22 03:22 | 21.03632 | -86.86753 | 19 ft | 0 kts | 303° |